Hauptseite
METAR-TAF:

METAR-TAF

Flughäfen :

Selibe-Phikwe, Botsuana

Breite: 22-03-19S, Länge: 027-49-13E, Höhe: 892 m

Beobachtung

Neuester Wetterbericht von vor 3 Stunden und 50 Minuten, um 18:00 UTC
Windstille
Temperatur 17°C
Luftfeuchtigkeit 94%
Luftdruck 1021 hPa
Sichtweite 10 km oder mehr
Geschlossene Wolkendecke in der Höhe von 2000 ft

METAR: FBSP 241800Z 00000KT 9999 OVC020 17/16 Q1021 RERA

Zeit: 23:50 (21:50 UTC)

Prognose

Neuester Wetterbericht von vor 9 Stunden und 50 Minuten, um 12:00 UTC
Gültige Prognose vom 24 um 15 UTC bis 24 um 24 UTC
Wind 12 kt aus Ost
Sichtweite 10 km oder mehr
Aufgelockert bewölkt in der Höhe von 2000 ft
Leicht bewölkt in der Höhe von 3500 ft, Kumulonimbus.
Durchbrochene Bewölkung in der Höhe von 7000 ft
Wahrscheinlichkeit 30% :
Zeitweise
vom 24 um 15 UTC bis 24 um 21 UTC
Gewitter, Regen

TAF: FBSP 241200Z 2415/2424 10012KT 9999 SCT020 FEW035CB BKN070 PROB30 TEMPO 2415/2421 TSRA

Wetterbeobachtungen und Prognosen von mehr als 4000 Flughäfen (METAR und TAF Bericht).

Die verfügbaren Stationen werden durch gelbe und rote Markierungen auf der Karte dargestellt.

Führen Sie die Maus auf sie, um den Namen der Station zu sehen.

Darauf klicken, um die Beobachtung von Wetterbeobachtungen und Prognosen zu sehen.

Um die Karte zu ändern : klicken Sie auf den grünen Tasten mit einem schwarzen Kreuz Zum Vergrößern, auf den grünen Button mit einem Gedankenstrich zu verkleinern, oder auf die grünen Pfeile für benachbarte Karten.


METAR-TAF: